Time;durP1;ratioP1;P1;durP2;ratioP2;P2;SDS_P1;SDS_P2;PMS_P1;PMS_P2;Temp;Humidity;BMP_temperature;BMP_pressure;BME280_temperature;BME280_humidity;BME280_pressure;Samples;Min_cycle;Max_cycle;Signal;HPM_P1;HPM_P2
2022/01/11 00:00:46;;;;;;;36.60;17.00;;;;;;;;;;5048797;28;20212;-56
2022/01/11 00:03:12;;;;;;;34.35;15.80;;;;;;;;;;5081760;28;20031;-55
2022/01/11 00:05:48;;;;;;;37.10;16.48;;;;;;;;;;5065251;28;20024;-55
2022/01/11 00:08:18;;;;;;;33.38;15.68;;;;;;;;;;5081945;28;20058;-56
2022/01/11 00:10:51;;;;;;;44.50;18.02;;;;;;;;;;5062031;28;20147;-57
2022/01/11 00:13:19;;;;;;;32.45;15.75;;;;;;;;;;5080818;27;21042;-57
2022/01/11 00:15:47;;;;;;;34.92;14.55;;;;;;;;;;5065649;28;20031;-56
2022/01/11 00:18:18;;;;;;;35.25;14.65;;;;;;;;;;5069778;28;20062;-56
2022/01/11 00:20:43;;;;;;;43.45;17.20;;;;;;;;;;5081712;28;20053;-55
2022/01/11 00:25:41;;;;;;;34.63;14.68;;;;;;;;;;5081518;28;20047;-56
2022/01/11 00:28:10;;;;;;;39.45;14.95;;;;;;;;;;5081983;28;20040;-57
2022/01/11 00:30:40;;;;;;;39.13;15.68;;;;;;;;;;5080812;28;20039;-56
2022/01/11 00:33:18;;;;;;;44.05;17.15;;;;;;;;;;5082403;28;20023;-60
2022/01/11 00:35:46;;;;;;;38.95;14.98;;;;;;;;;;5082576;28;20044;-56
2022/01/11 00:38:17;;;;;;;37.67;15.65;;;;;;;;;;5059646;28;20030;-56
2022/01/11 00:40:51;;;;;;;50.40;16.48;;;;;;;;;;5081323;28;20028;-56
2022/01/11 00:43:18;;;;;;;45.33;16.52;;;;;;;;;;5064801;28;20114;-56
2022/01/11 00:45:48;;;;;;;37.42;17.00;;;;;;;;;;5043936;28;20031;-55
2022/01/11 00:48:16;;;;;;;39.63;16.60;;;;;;;;;;5081499;28;20023;-56
2022/01/11 00:50:42;;;;;;;40.88;18.08;;;;;;;;;;5063947;27;20076;-56
2022/01/11 00:53:08;;;;;;;37.65;16.60;;;;;;;;;;5045187;28;20035;-57
2022/01/11 00:55:34;;;;;;;38.65;16.42;;;;;;;;;;5080838;28;20027;-56
2022/01/11 00:58:00;;;;;;;40.42;15.55;;;;;;;;;;5062061;28;20508;-55
2022/01/11 01:00:30;;;;;;;43.55;18.48;;;;;;;;;;5080685;28;20724;-56
2022/01/11 01:02:58;;;;;;;44.50;17.55;;;;;;;;;;5080664;28;20051;-56
2022/01/11 01:05:23;;;;;;;42.42;17.58;;;;;;;;;;5080370;28;20367;-55
2022/01/11 01:07:52;;;;;;;42.25;17.25;;;;;;;;;;5080800;28;20034;-56
2022/01/11 01:10:26;;;;;;;46.28;18.55;;;;;;;;;;5081910;28;20028;-54
2022/01/11 01:12:55;;;;;;;49.05;18.40;;;;;;;;;;5065592;28;20035;-56
2022/01/11 01:15:21;;;;;;;48.58;18.38;;;;;;;;;;5061705;28;21110;-55
2022/01/11 01:17:46;;;;;;;47.60;18.15;;;;;;;;;;5079700;28;20043;-56
2022/01/11 01:20:12;;;;;;;40.03;17.92;;;;;;;;;;5043687;28;20043;-55
2022/01/11 01:22:40;;;;;;;54.38;18.65;;;;;;;;;;5081049;28;20059;-55
2022/01/11 01:25:10;;;;;;;48.58;17.80;;;;;;;;;;5063748;28;20051;-56
2022/01/11 01:27:39;;;;;;;37.88;15.75;;;;;;;;;;5078322;28;20027;-55
2022/01/11 01:30:05;;;;;;;45.88;19.40;;;;;;;;;;5047658;28;20116;-56
2022/01/11 01:32:31;;;;;;;38.80;18.00;;;;;;;;;;5060547;28;21102;-55
2022/01/11 01:35:01;;;;;;;35.30;16.13;;;;;;;;;;5067064;28;20216;-56
2022/01/11 01:37:29;;;;;;;45.00;17.33;;;;;;;;;;5080689;28;20043;-56
2022/01/11 01:39:56;;;;;;;44.10;17.20;;;;;;;;;;5080983;28;20128;-55
2022/01/11 01:42:28;;;;;;;43.80;18.48;;;;;;;;;;5062543;28;20028;-55
2022/01/11 01:45:00;;;;;;;38.25;15.80;;;;;;;;;;5080076;28;20039;-56
2022/01/11 01:47:26;;;;;;;44.35;17.15;;;;;;;;;;5061797;28;20129;-56
2022/01/11 01:49:53;;;;;;;53.20;18.40;;;;;;;;;;5065163;28;20015;-55
2022/01/11 01:52:19;;;;;;;51.45;18.58;;;;;;;;;;5062128;28;20080;-55
2022/01/11 01:54:49;;;;;;;46.75;16.50;;;;;;;;;;5079881;28;20020;-55
2022/01/11 01:57:14;;;;;;;52.85;19.40;;;;;;;;;;5070246;28;20036;-57
2022/01/11 01:59:40;;;;;;;44.22;18.67;;;;;;;;;;5048408;28;20038;-56
2022/01/11 02:02:09;;;;;;;51.47;18.92;;;;;;;;;;5080905;28;21032;-56
2022/01/11 02:04:41;;;;;;;48.58;17.48;;;;;;;;;;5046884;28;20032;-56
2022/01/11 02:07:07;;;;;;;52.10;18.35;;;;;;;;;;5086541;27;20618;-56
2022/01/11 02:09:33;;;;;;;60.17;20.55;;;;;;;;;;5088066;27;20705;-57
2022/01/11 02:11:58;;;;;;;44.67;18.50;;;;;;;;;;5066854;28;20302;-56
2022/01/11 02:14:24;;;;;;;52.80;19.80;;;;;;;;;;5067249;28;20032;-57
2022/01/11 02:16:51;;;;;;;63.78;18.02;;;;;;;;;;5083577;27;20040;-57
2022/01/11 02:19:17;;;;;;;56.90;20.38;;;;;;;;;;5051715;27;20036;-57
2022/01/11 02:21:42;;;;;;;48.38;19.35;;;;;;;;;;5056370;28;20065;-57
2022/01/11 02:24:12;;;;;;;55.83;20.33;;;;;;;;;;5057881;28;20040;-56
2022/01/11 02:26:40;;;;;;;42.95;18.75;;;;;;;;;;5088225;27;20028;-58
2022/01/11 02:29:11;;;;;;;52.97;19.25;;;;;;;;;;5087056;27;20035;-57
2022/01/11 02:31:39;;;;;;;49.30;18.20;;;;;;;;;;5085317;27;20479;-57
2022/01/11 02:34:04;;;;;;;51.53;18.73;;;;;;;;;;5086811;27;20032;-57
2022/01/11 02:36:35;;;;;;;50.42;19.38;;;;;;;;;;5065932;28;20108;-57
2022/01/11 02:39:03;;;;;;;40.35;18.25;;;;;;;;;;5087524;27;20019;-57
2022/01/11 02:41:29;;;;;;;60.53;20.88;;;;;;;;;;5053551;27;20565;-60
2022/01/11 02:43:59;;;;;;;54.97;18.55;;;;;;;;;;5069506;28;20035;-57
2022/01/11 02:46:28;;;;;;;47.05;18.63;;;;;;;;;;5086605;27;20099;-57
2022/01/11 02:48:56;;;;;;;48.42;18.92;;;;;;;;;;5055155;27;20118;-57
2022/01/11 02:51:24;;;;;;;64.43;19.38;;;;;;;;;;5054060;27;20034;-57
2022/01/11 02:53:51;;;;;;;48.97;17.20;;;;;;;;;;5068819;28;20585;-57
2022/01/11 02:56:19;;;;;;;44.83;17.50;;;;;;;;;;5073783;28;20040;-57
2022/01/11 02:58:44;;;;;;;51.63;19.35;;;;;;;;;;5071757;28;20124;-57
2022/01/11 03:01:10;;;;;;;50.53;17.60;;;;;;;;;;5069223;28;20191;-56
2022/01/11 03:03:38;;;;;;;51.25;18.85;;;;;;;;;;5086010;27;20038;-57
2022/01/11 03:06:06;;;;;;;61.17;19.90;;;;;;;;;;5066880;28;20385;-56
2022/01/11 03:08:33;;;;;;;44.17;18.70;;;;;;;;;;5068494;28;20073;-57
2022/01/11 03:10:59;;;;;;;58.95;20.55;;;;;;;;;;5083422;27;20024;-56
2022/01/11 03:13:25;;;;;;;64.80;20.00;;;;;;;;;;5068889;27;20034;-56
2022/01/11 03:15:52;;;;;;;65.53;19.38;;;;;;;;;;5086069;27;20040;-56
2022/01/11 03:18:19;;;;;;;60.67;20.45;;;;;;;;;;5085352;28;20674;-56
2022/01/11 03:20:47;;;;;;;70.80;21.95;;;;;;;;;;5066401;28;20606;-56
2022/01/11 03:23:14;;;;;;;75.43;21.70;;;;;;;;;;5065993;28;20201;-56
2022/01/11 03:25:40;;;;;;;63.28;20.10;;;;;;;;;;5084129;28;20143;-56
2022/01/11 03:28:08;;;;;;;52.80;19.05;;;;;;;;;;5083690;28;20555;-55
2022/01/11 03:30:36;;;;;;;53.38;19.83;;;;;;;;;;5065658;28;20032;-56
2022/01/11 03:33:08;;;;;;;60.80;18.90;;;;;;;;;;5060217;28;20028;-55
2022/01/11 03:35:35;;;;;;;72.63;21.73;;;;;;;;;;5064195;28;21982;-55
2022/01/11 03:38:04;;;;;;;70.97;22.65;;;;;;;;;;5076649;28;20027;-58
2022/01/11 03:40:34;;;;;;;61.67;20.55;;;;;;;;;;5080184;28;20042;-58
2022/01/11 03:43:04;;;;;;;59.22;20.88;;;;;;;;;;5069025;28;20023;-56
2022/01/11 03:45:33;;;;;;;69.40;22.15;;;;;;;;;;5082028;28;20036;-56
2022/01/11 03:48:02;;;;;;;62.80;20.25;;;;;;;;;;5082139;28;20027;-54
2022/01/11 03:50:33;;;;;;;63.15;20.35;;;;;;;;;;5085103;28;20039;-57
2022/01/11 03:53:14;;;;;;;64.88;21.63;;;;;;;;;;5083255;28;20036;-56
2022/01/11 03:58:26;;;;;;;84.07;23.88;;;;;;;;;;5083363;27;20028;-56
2022/01/11 04:00:56;;;;;;;67.13;21.13;;;;;;;;;;5060539;27;20032;-56
2022/01/11 04:03:25;;;;;;;56.35;20.30;;;;;;;;;;5082325;28;20483;-57
2022/01/11 04:05:51;;;;;;;74.68;20.25;;;;;;;;;;5083218;28;20023;-57
2022/01/11 04:08:19;;;;;;;65.57;21.50;;;;;;;;;;5081196;28;20330;-58
2022/01/11 04:10:44;;;;;;;67.20;22.00;;;;;;;;;;5068077;28;20031;-55
2022/01/11 04:13:10;;;;;;;61.83;19.38;;;;;;;;;;5082447;28;20036;-57
2022/01/11 04:15:36;;;;;;;60.13;20.85;;;;;;;;;;5082783;28;20503;-56
2022/01/11 04:18:03;;;;;;;65.05;19.33;;;;;;;;;;5034712;28;20812;-56
2022/01/11 04:20:34;;;;;;;62.17;22.02;;;;;;;;;;5079977;27;20040;-57
2022/01/11 04:23:02;;;;;;;76.57;21.75;;;;;;;;;;5078735;28;20031;-57
2022/01/11 04:25:27;;;;;;;63.65;20.58;;;;;;;;;;5082768;28;20340;-57
2022/01/11 04:27:57;;;;;;;59.08;19.92;;;;;;;;;;5081017;28;20927;-58
2022/01/11 04:30:24;;;;;;;55.42;19.25;;;;;;;;;;5035787;28;20117;-57
2022/01/11 04:32:50;;;;;;;70.15;21.02;;;;;;;;;;5049665;28;20125;-57
2022/01/11 04:35:16;;;;;;;61.15;20.10;;;;;;;;;;5066024;28;20114;-56
2022/01/11 04:37:44;;;;;;;66.95;20.77;;;;;;;;;;5081344;28;20994;-55
2022/01/11 04:40:13;;;;;;;71.22;21.98;;;;;;;;;;5080116;28;20120;-57
2022/01/11 04:42:40;;;;;;;64.15;21.10;;;;;;;;;;5081106;28;20047;-58
2022/01/11 04:45:15;;;;;;;60.67;21.13;;;;;;;;;;5048683;27;20095;-56
2022/01/11 04:47:41;;;;;;;60.28;19.70;;;;;;;;;;5080532;27;20531;-55
2022/01/11 04:50:08;;;;;;;75.88;22.55;;;;;;;;;;5083199;28;20072;-56
2022/01/11 04:52:37;;;;;;;60.83;18.98;;;;;;;;;;5045527;28;20043;-56
2022/01/11 04:55:06;;;;;;;71.90;19.60;;;;;;;;;;5065212;28;20161;-56
2022/01/11 04:57:36;;;;;;;50.92;17.85;;;;;;;;;;5061821;28;20028;-55
2022/01/11 05:00:07;;;;;;;66.95;18.17;;;;;;;;;;5082412;28;20042;-55
2022/01/11 05:02:35;;;;;;;52.20;17.88;;;;;;;;;;5064328;28;20028;-55
2022/01/11 05:05:01;;;;;;;46.75;17.45;;;;;;;;;;5043606;28;20505;-55
2022/01/11 05:07:27;;;;;;;56.22;19.48;;;;;;;;;;5064231;28;20049;-56
2022/01/11 05:09:54;;;;;;;63.45;19.63;;;;;;;;;;5062199;28;20023;-56
2022/01/11 05:12:24;;;;;;;57.67;20.15;;;;;;;;;;5061115;28;20958;-56
2022/01/11 05:14:50;;;;;;;44.22;16.33;;;;;;;;;;5079593;28;20039;-56
2022/01/11 05:17:15;;;;;;;48.25;16.77;;;;;;;;;;5081150;28;20028;-57
2022/01/11 05:19:43;;;;;;;53.67;18.10;;;;;;;;;;5080673;28;20042;-56
2022/01/11 05:22:12;;;;;;;50.53;17.75;;;;;;;;;;5062010;28;20027;-56
2022/01/11 05:24:39;;;;;;;59.92;18.73;;;;;;;;;;5080169;28;20984;-57
2022/01/11 05:27:07;;;;;;;67.25;18.70;;;;;;;;;;5081883;28;20038;-56
2022/01/11 05:29:33;;;;;;;55.30;15.75;;;;;;;;;;5063093;28;20028;-58
2022/01/11 05:31:58;;;;;;;50.25;18.25;;;;;;;;;;5081231;28;20031;-57
2022/01/11 05:34:26;;;;;;;57.53;18.60;;;;;;;;;;5077845;28;20032;-56
2022/01/11 05:36:54;;;;;;;51.30;17.02;;;;;;;;;;5047748;28;20059;-54
2022/01/11 05:39:22;;;;;;;53.33;18.00;;;;;;;;;;5052615;28;20130;-56
2022/01/11 05:41:47;;;;;;;49.05;17.90;;;;;;;;;;5064514;28;20035;-56
2022/01/11 05:44:13;;;;;;;59.40;17.95;;;;;;;;;;5065264;28;20032;-55
2022/01/11 05:46:38;;;;;;;55.45;17.42;;;;;;;;;;5049476;28;20038;-56
2022/01/11 05:49:09;;;;;;;49.13;17.85;;;;;;;;;;5082936;28;20032;-55
2022/01/11 05:51:37;;;;;;;43.95;16.73;;;;;;;;;;5081598;28;20059;-57
2022/01/11 05:54:02;;;;;;;50.53;17.10;;;;;;;;;;5083983;28;20116;-56
2022/01/11 05:56:30;;;;;;;54.08;17.50;;;;;;;;;;5065193;28;20027;-56
2022/01/11 05:58:56;;;;;;;43.97;14.98;;;;;;;;;;5079915;28;20516;-57
2022/01/11 06:01:24;;;;;;;57.42;17.77;;;;;;;;;;5077750;28;20039;-55
2022/01/11 06:03:49;;;;;;;53.67;17.40;;;;;;;;;;5047864;28;20035;-57
2022/01/11 06:06:17;;;;;;;48.92;17.83;;;;;;;;;;5078928;28;20028;-57
2022/01/11 06:08:45;;;;;;;52.65;19.70;;;;;;;;;;5078685;28;20095;-55
2022/01/11 06:11:13;;;;;;;58.42;18.73;;;;;;;;;;5030443;28;20032;-55
2022/01/11 06:13:40;;;;;;;59.78;19.52;;;;;;;;;;5079358;28;20670;-56
2022/01/11 06:16:10;;;;;;;53.55;19.35;;;;;;;;;;5045711;28;20033;-56
2022/01/11 06:18:38;;;;;;;46.88;17.13;;;;;;;;;;5065323;28;20131;-57
2022/01/11 06:21:04;;;;;;;48.95;16.42;;;;;;;;;;5061660;28;20032;-55
2022/01/11 06:23:32;;;;;;;49.13;17.63;;;;;;;;;;5080853;28;20036;-57
2022/01/11 06:25:58;;;;;;;36.35;15.45;;;;;;;;;;5082708;28;20040;-55
2022/01/11 06:28:23;;;;;;;52.42;16.77;;;;;;;;;;5049654;28;20532;-56
2022/01/11 06:30:51;;;;;;;47.75;16.85;;;;;;;;;;5081629;28;20146;-55
2022/01/11 06:33:19;;;;;;;50.13;18.08;;;;;;;;;;5046649;28;20055;-56
2022/01/11 06:35:49;;;;;;;45.58;17.05;;;;;;;;;;5061096;28;20533;-56
2022/01/11 06:38:15;;;;;;;47.50;16.33;;;;;;;;;;5079317;28;20026;-55
2022/01/11 06:40:41;;;;;;;48.20;17.30;;;;;;;;;;5079567;28;20069;-56
2022/01/11 06:43:08;;;;;;;52.05;18.08;;;;;;;;;;5049194;28;20023;-55
2022/01/11 06:45:39;;;;;;;46.50;18.40;;;;;;;;;;5063738;28;20036;-54
2022/01/11 06:48:08;;;;;;;45.58;16.60;;;;;;;;;;5060525;28;20036;-55
2022/01/11 06:50:36;;;;;;;52.10;18.83;;;;;;;;;;5079397;28;20028;-55
2022/01/11 06:53:04;;;;;;;52.05;16.33;;;;;;;;;;5081786;28;20385;-54
2022/01/11 06:55:30;;;;;;;47.20;15.52;;;;;;;;;;5080822;28;20107;-56
2022/01/11 06:58:00;;;;;;;48.63;15.85;;;;;;;;;;5074142;28;20040;-55
2022/01/11 07:00:28;;;;;;;49.72;17.48;;;;;;;;;;5067923;28;20036;-56
2022/01/11 07:02:54;;;;;;;43.85;18.08;;;;;;;;;;5078413;28;20023;-55
2022/01/11 07:05:22;;;;;;;47.17;18.13;;;;;;;;;;5051503;28;20052;-56
2022/01/11 07:07:48;;;;;;;42.65;15.98;;;;;;;;;;5081959;28;20036;-56
2022/01/11 07:10:15;;;;;;;44.95;17.25;;;;;;;;;;5082025;28;20032;-56
2022/01/11 07:12:41;;;;;;;47.47;16.42;;;;;;;;;;5064970;28;20058;-56
2022/01/11 07:15:12;;;;;;;43.70;16.83;;;;;;;;;;5081774;28;20031;-58
2022/01/11 07:17:37;;;;;;;47.80;16.75;;;;;;;;;;5083163;28;20151;-55
2022/01/11 07:20:05;;;;;;;50.42;16.05;;;;;;;;;;5084148;27;20039;-58
2022/01/11 07:22:31;;;;;;;39.38;15.65;;;;;;;;;;5060914;28;20050;-56
2022/01/11 07:24:57;;;;;;;41.80;16.23;;;;;;;;;;5080531;28;20104;-56
2022/01/11 07:27:22;;;;;;;46.25;17.13;;;;;;;;;;5080423;28;20158;-55
2022/01/11 07:29:48;;;;;;;57.83;17.35;;;;;;;;;;5083244;28;20343;-54
2022/01/11 07:32:14;;;;;;;46.78;16.23;;;;;;;;;;5076811;28;21905;-57
2022/01/11 07:34:44;;;;;;;41.58;16.58;;;;;;;;;;5051379;28;20039;-55
2022/01/11 07:37:09;;;;;;;45.47;15.63;;;;;;;;;;5062540;28;20248;-56
2022/01/11 07:39:40;;;;;;;44.90;16.45;;;;;;;;;;5065216;28;20035;-55
2022/01/11 07:42:05;;;;;;;41.78;15.13;;;;;;;;;;5078828;28;20059;-57
2022/01/11 07:44:38;;;;;;;46.22;16.25;;;;;;;;;;5064424;28;20135;-56
2022/01/11 07:47:08;;;;;;;41.40;15.32;;;;;;;;;;5045310;28;20027;-56
2022/01/11 07:49:36;;;;;;;44.75;15.15;;;;;;;;;;5066725;28;20032;-56
2022/01/11 07:52:01;;;;;;;38.08;14.73;;;;;;;;;;5060185;28;20080;-56
2022/01/11 07:54:29;;;;;;;43.80;15.02;;;;;;;;;;5083583;28;20059;-56
2022/01/11 07:56:54;;;;;;;38.55;15.13;;;;;;;;;;5048398;28;20031;-57
2022/01/11 07:59:20;;;;;;;45.45;14.88;;;;;;;;;;5082767;28;20035;-57
2022/01/11 08:01:48;;;;;;;38.53;14.60;;;;;;;;;;5061599;28;20788;-56
2022/01/11 08:04:16;;;;;;;49.10;16.15;;;;;;;;;;5064616;28;20040;-56
2022/01/11 08:06:41;;;;;;;41.95;15.55;;;;;;;;;;5064220;28;20047;-57
2022/01/11 08:09:14;;;;;;;38.95;15.40;;;;;;;;;;5081070;28;20032;-58
2022/01/11 08:11:42;;;;;;;46.45;14.80;;;;;;;;;;5046826;28;20032;-56
2022/01/11 08:14:10;;;;;;;40.38;14.70;;;;;;;;;;5081997;28;20027;-56
2022/01/11 08:16:35;;;;;;;34.78;14.18;;;;;;;;;;5060368;28;20486;-56
2022/01/11 08:19:01;;;;;;;33.00;13.90;;;;;;;;;;5072049;28;20072;-56
2022/01/11 08:21:26;;;;;;;42.65;14.20;;;;;;;;;;5042711;28;20059;-56
2022/01/11 08:23:54;;;;;;;38.15;14.05;;;;;;;;;;5060604;28;20032;-56
2022/01/11 08:26:22;;;;;;;45.67;13.45;;;;;;;;;;5079036;27;20067;-59
2022/01/11 08:28:53;;;;;;;38.58;14.55;;;;;;;;;;5081837;28;23316;-57
2022/01/11 08:31:20;;;;;;;35.65;12.90;;;;;;;;;;5048455;28;20036;-57
2022/01/11 08:33:50;;;;;;;31.40;12.25;;;;;;;;;;5058875;28;20098;-58
2022/01/11 08:36:18;;;;;;;37.35;12.73;;;;;;;;;;5063362;28;20055;-55
2022/01/11 08:38:47;;;;;;;30.90;12.98;;;;;;;;;;5062446;28;20077;-57
2022/01/11 08:41:19;;;;;;;36.20;13.48;;;;;;;;;;5048998;28;20228;-55
2022/01/11 08:43:49;;;;;;;32.58;14.05;;;;;;;;;;5081961;28;21871;-55
2022/01/11 08:46:17;;;;;;;35.65;13.05;;;;;;;;;;5079411;28;20032;-58
2022/01/11 08:48:42;;;;;;;35.33;13.35;;;;;;;;;;5046518;28;20023;-56
2022/01/11 08:51:10;;;;;;;41.55;13.25;;;;;;;;;;5070372;28;21066;-57
2022/01/11 08:53:38;;;;;;;31.60;13.05;;;;;;;;;;5043634;28;20035;-57
2022/01/11 08:56:08;;;;;;;28.52;12.48;;;;;;;;;;5059333;28;20090;-57
2022/01/11 08:58:38;;;;;;;33.88;12.30;;;;;;;;;;5050430;28;20051;-57
2022/01/11 09:01:04;;;;;;;33.35;13.15;;;;;;;;;;5067636;28;20180;-58
2022/01/11 09:03:34;;;;;;;36.95;13.73;;;;;;;;;;5047247;28;20028;-58
2022/01/11 09:06:07;;;;;;;27.05;10.95;;;;;;;;;;5062178;28;20913;-56
2022/01/11 09:08:34;;;;;;;28.05;13.18;;;;;;;;;;5050834;28;20019;-58
2022/01/11 09:11:06;;;;;;;32.05;13.63;;;;;;;;;;5066211;28;20102;-56
2022/01/11 09:13:36;;;;;;;31.98;12.52;;;;;;;;;;5081096;28;20100;-57
2022/01/11 09:16:02;;;;;;;32.38;12.80;;;;;;;;;;5079874;28;20020;-56
2022/01/11 09:18:27;;;;;;;31.73;11.38;;;;;;;;;;5081411;28;20895;-55
2022/01/11 09:21:00;;;;;;;27.50;11.57;;;;;;;;;;5080330;28;20047;-57
2022/01/11 09:23:28;;;;;;;29.83;11.38;;;;;;;;;;5061453;28;20035;-56
2022/01/11 09:25:53;;;;;;;31.05;11.02;;;;;;;;;;5047498;28;20044;-56
2022/01/11 09:28:19;;;;;;;25.83;11.27;;;;;;;;;;5064940;28;20032;-57
2022/01/11 09:30:49;;;;;;;30.50;11.63;;;;;;;;;;5072698;28;20639;-56
2022/01/11 09:33:17;;;;;;;23.48;10.82;;;;;;;;;;5062501;28;20112;-56
2022/01/11 09:35:45;;;;;;;26.70;10.38;;;;;;;;;;5064952;28;20032;-57
2022/01/11 09:38:13;;;;;;;24.55;9.93;;;;;;;;;;5080950;28;20494;-57
2022/01/11 09:40:38;;;;;;;27.80;9.98;;;;;;;;;;5081705;28;20046;-56
2022/01/11 09:43:04;;;;;;;22.15;10.05;;;;;;;;;;5067280;28;20194;-57
2022/01/11 09:45:31;;;;;;;27.27;10.40;;;;;;;;;;5048326;28;20032;-57
2022/01/11 09:48:04;;;;;;;27.70;10.40;;;;;;;;;;5064373;28;20110;-58
2022/01/11 09:50:30;;;;;;;24.35;10.43;;;;;;;;;;5062679;28;20043;-57
2022/01/11 09:52:59;;;;;;;22.60;10.48;;;;;;;;;;5060115;28;20036;-57
2022/01/11 09:55:27;;;;;;;22.17;10.50;;;;;;;;;;5062654;28;20032;-56
2022/01/11 09:57:53;;;;;;;26.98;10.55;;;;;;;;;;5058572;28;20035;-57
2022/01/11 10:00:23;;;;;;;22.00;9.73;;;;;;;;;;5080346;28;20371;-57
2022/01/11 10:02:50;;;;;;;25.35;9.25;;;;;;;;;;5079041;28;20702;-58
2022/01/11 10:05:19;;;;;;;22.70;9.27;;;;;;;;;;5078399;28;20068;-57
2022/01/11 10:07:44;;;;;;;28.30;9.85;;;;;;;;;;5062573;28;20131;-58
2022/01/11 10:10:13;;;;;;;25.05;10.32;;;;;;;;;;5063237;28;20592;-57
2022/01/11 10:12:49;;;;;;;27.05;9.93;;;;;;;;;;5081913;28;20059;-57
2022/01/11 10:15:24;;;;;;;18.92;9.02;;;;;;;;;;5050509;28;20165;-57
2022/01/11 10:17:49;;;;;;;28.45;9.32;;;;;;;;;;5080790;28;21983;-58
2022/01/11 10:20:16;;;;;;;25.52;9.77;;;;;;;;;;5078697;28;20028;-56
2022/01/11 10:22:48;;;;;;;24.38;10.18;;;;;;;;;;5080536;28;20170;-58
2022/01/11 10:25:16;;;;;;;22.17;9.82;;;;;;;;;;5079533;28;20042;-57
2022/01/11 10:27:42;;;;;;;20.92;9.73;;;;;;;;;;5064290;28;20038;-56
2022/01/11 10:30:17;;;;;;;22.85;9.98;;;;;;;;;;5063628;28;20796;-58
2022/01/11 10:32:46;;;;;;;20.42;8.38;;;;;;;;;;5070942;28;20063;-58
2022/01/11 10:35:16;;;;;;;24.83;9.52;;;;;;;;;;5087077;27;21017;-58
2022/01/11 10:37:45;;;;;;;21.13;10.07;;;;;;;;;;5072165;28;20039;-58
2022/01/11 10:40:16;;;;;;;24.85;9.98;;;;;;;;;;5088788;28;20028;-57
2022/01/11 10:42:48;;;;;;;26.92;10.48;;;;;;;;;;5066049;28;20027;-58
2022/01/11 10:45:15;;;;;;;23.55;10.90;;;;;;;;;;5054003;28;20032;-56
2022/01/11 10:47:47;;;;;;;23.00;10.88;;;;;;;;;;5065619;28;20020;-58
2022/01/11 10:50:28;;;;;;;29.23;9.80;;;;;;;;;;5085879;28;20097;-58
2022/01/11 10:52:59;;;;;;;27.70;10.05;;;;;;;;;;5087418;28;20289;-56
2022/01/11 10:55:30;;;;;;;30.53;10.17;;;;;;;;;;5087051;28;20039;-57
2022/01/11 10:58:02;;;;;;;25.50;10.32;;;;;;;;;;5084722;28;20047;-56
2022/01/11 11:00:30;;;;;;;28.63;10.55;;;;;;;;;;5085295;28;20044;-55
2022/01/11 11:02:57;;;;;;;23.50;9.57;;;;;;;;;;5069866;28;20031;-56
2022/01/11 11:05:24;;;;;;;17.45;8.52;;;;;;;;;;5083972;28;20151;-55
2022/01/11 11:08:20;;;;;;;27.00;10.25;;;;;;;;;;5064071;28;20664;-58
2022/01/11 11:10:51;;;;;;;25.02;10.38;;;;;;;;;;5037997;28;20103;-56
2022/01/11 11:13:19;;;;;;;22.70;9.38;;;;;;;;;;5069832;28;20035;-57
2022/01/11 11:15:53;;;;;;;23.75;9.90;;;;;;;;;;5087597;27;20024;-55
2022/01/11 11:18:24;;;;;;;22.10;10.32;;;;;;;;;;5053836;28;20027;-53
2022/01/11 11:20:52;;;;;;;24.50;10.40;;;;;;;;;;5073894;28;20047;-55
2022/01/11 11:23:18;;;;;;;20.85;10.18;;;;;;;;;;5083705;28;20059;-52
2022/01/11 11:25:44;;;;;;;25.30;10.57;;;;;;;;;;5083695;28;20447;-53
2022/01/11 11:28:12;;;;;;;22.83;9.07;;;;;;;;;;5082058;27;20032;-54
2022/01/11 11:30:47;;;;;;;20.38;9.45;;;;;;;;;;5083488;28;20050;-53
2022/01/11 11:33:18;;;;;;;23.65;10.55;;;;;;;;;;5084665;28;20672;-52
2022/01/11 11:35:47;;;;;;;21.10;9.88;;;;;;;;;;5084821;28;20118;-53
2022/01/11 11:38:15;;;;;;;17.80;8.80;;;;;;;;;;5066670;28;20035;-52
2022/01/11 11:40:41;;;;;;;18.20;9.30;;;;;;;;;;5051458;28;20557;-54
2022/01/11 11:43:12;;;;;;;21.08;9.93;;;;;;;;;;5072328;28;20034;-54
2022/01/11 11:45:38;;;;;;;19.77;9.32;;;;;;;;;;5064407;28;20044;-52
2022/01/11 11:48:03;;;;;;;20.17;9.60;;;;;;;;;;5084254;28;20016;-54
2022/01/11 11:50:32;;;;;;;21.60;9.30;;;;;;;;;;5085674;28;20020;-55
2022/01/11 11:52:59;;;;;;;21.38;10.77;;;;;;;;;;5081694;28;20031;-54
2022/01/11 11:55:28;;;;;;;19.63;9.70;;;;;;;;;;5085281;27;20031;-53
2022/01/11 11:58:01;;;;;;;22.65;10.05;;;;;;;;;;5049455;28;20032;-54
2022/01/11 12:00:28;;;;;;;18.90;9.63;;;;;;;;;;5064492;28;20423;-54
2022/01/11 12:02:56;;;;;;;20.08;9.05;;;;;;;;;;5072792;28;20028;-56
2022/01/11 12:05:31;;;;;;;23.98;10.13;;;;;;;;;;5082128;27;20032;-56
2022/01/11 12:07:57;;;;;;;21.50;10.15;;;;;;;;;;5065239;28;20050;-56
2022/01/11 12:10:43;;;;;;;23.30;10.40;;;;;;;;;;5079879;28;20028;-56
2022/01/11 12:13:08;;;;;;;25.90;9.18;;;;;;;;;;5070083;28;20040;-55
2022/01/11 12:15:36;;;;;;;25.80;10.43;;;;;;;;;;5061019;28;20038;-56
2022/01/11 12:18:04;;;;;;;21.40;9.88;;;;;;;;;;5042726;28;20040;-56
2022/01/11 12:20:45;;;;;;;27.42;9.88;;;;;;;;;;5080186;27;20076;-56
2022/01/11 12:23:20;;;;;;;20.40;9.07;;;;;;;;;;5062464;28;20477;-57
2022/01/11 12:25:48;;;;;;;;;;;;;;;;;;5079001;28;20100;-56
2022/01/11 12:28:17;;;;;;;25.17;9.57;;;;;;;;;;5081717;28;19939;-55
2022/01/11 12:30:47;;;;;;;25.65;10.48;;;;;;;;;;5083011;28;20121;-55
2022/01/11 12:33:16;;;;;;;25.33;9.90;;;;;;;;;;5080100;28;20044;-54
2022/01/11 12:35:59;;;;;;;26.63;10.18;;;;;;;;;;5079996;27;20462;-57
2022/01/11 12:38:33;;;;;;;26.05;9.57;;;;;;;;;;5078453;28;20162;-57
2022/01/11 12:41:18;;;;;;;24.90;10.73;;;;;;;;;;5064321;28;20142;-57
2022/01/11 12:43:48;;;;;;;27.65;9.40;;;;;;;;;;5066031;28;20040;-55
2022/01/11 12:46:17;;;;;;;25.45;10.65;;;;;;;;;;5062899;28;20031;-55
2022/01/11 12:48:43;;;;;;;25.08;9.52;;;;;;;;;;5052104;28;20027;-56
2022/01/11 12:51:10;;;;;;;27.75;9.23;;;;;;;;;;5059570;28;20036;-55
2022/01/11 12:53:36;;;;;;;30.02;10.15;;;;;;;;;;5081220;28;20089;-56
2022/01/11 12:56:08;;;;;;;24.05;9.68;;;;;;;;;;5080683;27;20066;-57
2022/01/11 12:58:39;;;;;;;25.25;10.68;;;;;;;;;;5059850;28;20040;-56
2022/01/11 13:01:19;;;;;;;25.23;10.30;;;;;;;;;;5061701;28;20032;-57
2022/01/11 13:03:52;;;;;;;25.80;10.05;;;;;;;;;;5082005;28;20102;-58
2022/01/11 13:06:18;;;;;;;24.50;10.88;;;;;;;;;;5064652;28;20024;-56
2022/01/11 13:08:45;;;;;;;24.38;9.85;;;;;;;;;;5081874;28;20068;-58
2022/01/11 13:11:19;;;;;;;27.27;9.98;;;;;;;;;;5077578;28;20547;-57
2022/01/11 13:14:05;;;;;;;27.60;9.73;;;;;;;;;;5079779;28;20100;-57
2022/01/11 13:16:33;;;;;;;22.02;9.43;;;;;;;;;;5063724;28;20405;-58
2022/01/11 13:19:09;;;;;;;20.70;9.05;;;;;;;;;;5061807;28;20035;-57
2022/01/11 13:21:40;;;;;;;26.20;9.65;;;;;;;;;;5064832;28;20177;-57
2022/01/11 13:24:24;;;;;;;19.65;9.10;;;;;;;;;;5062195;28;20166;-58
2022/01/11 13:26:55;;;;;;;22.10;9.80;;;;;;;;;;5058931;28;20703;-58
2022/01/11 13:29:21;;;;;;;20.90;9.15;;;;;;;;;;5078657;28;20050;-58
2022/01/11 13:31:52;;;;;;;26.55;10.35;;;;;;;;;;5075451;28;20024;-59
2022/01/11 13:34:22;;;;;;;22.13;10.18;;;;;;;;;;5062793;28;20054;-58
2022/01/11 13:36:51;;;;;;;21.77;8.73;;;;;;;;;;5057113;28;20983;-58
2022/01/11 13:39:22;;;;;;;28.05;9.02;;;;;;;;;;5062906;28;20655;-59
2022/01/11 13:41:52;;;;;;;22.75;9.25;;;;;;;;;;5076042;28;20116;-57
2022/01/11 13:44:19;;;;;;;23.27;9.38;;;;;;;;;;5075934;28;20059;-58
2022/01/11 13:46:50;;;;;;;20.08;8.18;;;;;;;;;;5058001;28;20034;-58
2022/01/11 13:49:20;;;;;;;20.95;9.10;;;;;;;;;;5056832;28;20462;-60
2022/01/11 13:51:46;;;;;;;22.67;9.68;;;;;;;;;;5059839;28;20042;-60
2022/01/11 13:54:14;;;;;;;20.90;8.65;;;;;;;;;;5064280;28;20066;-59
2022/01/11 13:56:42;;;;;;;20.83;8.52;;;;;;;;;;5079815;28;20039;-59
2022/01/11 13:59:15;;;;;;;22.92;9.43;;;;;;;;;;5063825;28;21030;-59
2022/01/11 14:01:45;;;;;;;19.55;9.32;;;;;;;;;;5076768;28;21534;-59
2022/01/11 14:04:17;;;;;;;24.48;8.95;;;;;;;;;;5079206;28;20039;-58
2022/01/11 14:06:53;;;;;;;24.63;10.02;;;;;;;;;;5081002;28;20028;-58
2022/01/11 14:09:33;;;;;;;27.50;9.73;;;;;;;;;;5064524;28;20038;-58
2022/01/11 14:12:13;;;;;;;26.50;10.80;;;;;;;;;;5080745;28;20680;-58
2022/01/11 14:14:39;;;;;;;20.73;9.23;;;;;;;;;;5068022;28;20042;-60
2022/01/11 14:17:15;;;;;;;26.40;11.50;;;;;;;;;;5079488;28;20027;-59
2022/01/11 14:19:51;;;;;;;28.85;8.57;;;;;;;;;;5062198;28;20171;-59
2022/01/11 14:22:20;;;;;;;20.60;9.23;;;;;;;;;;5061088;28;20153;-60
2022/01/11 14:24:52;;;;;;;22.80;9.13;;;;;;;;;;5078047;28;20167;-59
2022/01/11 14:27:30;;;;;;;24.23;9.45;;;;;;;;;;5078726;28;20114;-59
2022/01/11 14:30:04;;;;;;;20.08;8.48;;;;;;;;;;5060623;28;20744;-59
2022/01/11 14:32:30;;;;;;;20.52;8.50;;;;;;;;;;5076419;28;20102;-60
2022/01/11 14:35:02;;;;;;;20.15;8.93;;;;;;;;;;5060299;28;20012;-60